createdAt,value
2023-03-26T00:01:39.479Z,8.46
2023-03-26T00:04:07.530Z,8.51
2023-03-26T00:06:39.964Z,8.49
2023-03-26T00:09:13.296Z,8.54
2023-03-26T00:11:41.720Z,8.53
2023-03-26T00:14:13.599Z,8.57
2023-03-26T00:16:44.591Z,8.57
2023-03-26T00:19:12.709Z,8.58
2023-03-26T00:21:39.983Z,8.62
2023-03-26T00:24:15.015Z,8.62
2023-03-26T00:26:43.747Z,8.69
2023-03-26T00:29:13.638Z,8.64
2023-03-26T00:31:41.130Z,8.62
2023-03-26T00:34:10.401Z,8.60
2023-03-26T00:36:37.366Z,8.58
2023-03-26T00:39:06.337Z,8.62
2023-03-26T00:41:37.317Z,8.59
2023-03-26T00:44:04.568Z,8.62
2023-03-26T00:46:32.607Z,8.59
2023-03-26T00:49:01.696Z,8.57
2023-03-26T00:51:29.623Z,8.54
2023-03-26T00:53:57.992Z,8.55
2023-03-26T00:56:26.329Z,8.56
2023-03-26T00:58:53.406Z,8.59
2023-03-26T01:01:28.069Z,8.56
2023-03-26T01:04:19.594Z,8.58
2023-03-26T01:06:46.955Z,8.57
2023-03-26T01:09:18.698Z,8.56
2023-03-26T01:11:47.611Z,8.56
2023-03-26T01:14:21.381Z,8.58
2023-03-26T01:16:52.671Z,8.58
2023-03-26T01:19:33.893Z,8.58
2023-03-26T01:22:01.819Z,8.60
2023-03-26T01:24:28.896Z,8.63
2023-03-26T01:27:12.077Z,8.66
2023-03-26T01:29:48.068Z,8.64
2023-03-26T01:32:46.384Z,8.62
2023-03-26T01:35:24.262Z,8.58
2023-03-26T01:38:11.043Z,8.56
2023-03-26T01:40:54.568Z,8.50
2023-03-26T01:43:32.380Z,8.48
2023-03-26T01:46:03.751Z,8.45
2023-03-26T01:48:37.046Z,8.43
2023-03-26T01:51:06.249Z,8.39
2023-03-26T01:53:37.976Z,8.34
2023-03-26T01:56:35.796Z,8.29
2023-03-26T01:59:29.054Z,8.26
2023-03-26T02:02:13.579Z,8.24
2023-03-26T02:04:55.750Z,8.19
2023-03-26T02:07:44.718Z,8.14
2023-03-26T02:10:26.615Z,8.13
2023-03-26T02:12:54.385Z,8.11
2023-03-26T02:15:22.129Z,8.09
2023-03-26T02:17:49.656Z,8.07
2023-03-26T02:20:18.896Z,8.07
2023-03-26T02:22:47.233Z,8.09
2023-03-26T02:25:19.177Z,8.13
2023-03-26T02:27:49.545Z,8.14
2023-03-26T02:30:27.401Z,8.15
2023-03-26T02:32:57.883Z,8.17
2023-03-26T02:35:25.143Z,8.20
2023-03-26T02:37:52.286Z,8.23
2023-03-26T02:40:21.218Z,8.21
2023-03-26T02:42:48.733Z,8.22
2023-03-26T02:45:16.433Z,8.25
2023-03-26T02:47:43.474Z,8.25
2023-03-26T02:50:11.858Z,8.28
2023-03-26T02:52:39.138Z,8.28
2023-03-26T02:55:06.181Z,8.32
2023-03-26T02:57:33.234Z,8.32
2023-03-26T03:00:00.115Z,8.33
2023-03-26T03:02:29.385Z,8.34
2023-03-26T03:05:01.468Z,8.39
2023-03-26T03:07:29.188Z,8.36
2023-03-26T03:09:56.503Z,8.34
2023-03-26T03:12:23.386Z,8.33
2023-03-26T03:14:50.486Z,8.30
2023-03-26T03:17:19.782Z,8.27
2023-03-26T03:19:46.945Z,8.24
2023-03-26T03:22:14.694Z,8.23
2023-03-26T03:24:43.693Z,8.21
2023-03-26T03:27:10.898Z,8.17
2023-03-26T03:29:37.734Z,8.16
2023-03-26T03:32:05.336Z,8.15
2023-03-26T03:34:32.647Z,8.14
2023-03-26T03:36:59.852Z,8.13
2023-03-26T03:39:27.140Z,8.14
2023-03-26T03:41:54.265Z,8.12
2023-03-26T03:44:21.457Z,8.11
2023-03-26T03:46:49.294Z,8.09
2023-03-26T03:49:16.082Z,8.09
2023-03-26T03:51:42.907Z,8.10
2023-03-26T03:54:09.975Z,8.07
2023-03-26T03:56:38.002Z,8.03
2023-03-26T03:59:05.474Z,8.01
2023-03-26T04:01:33.235Z,7.95
2023-03-26T04:04:00.493Z,7.93
2023-03-26T04:06:30.148Z,7.91
2023-03-26T04:08:57.577Z,7.86
2023-03-26T04:11:24.532Z,7.83
2023-03-26T04:13:52.098Z,7.82
2023-03-26T04:16:19.676Z,7.79
2023-03-26T04:18:46.973Z,7.78
2023-03-26T04:21:15.776Z,7.77
2023-03-26T04:23:43.838Z,7.78
2023-03-26T04:26:16.768Z,7.78
2023-03-26T04:28:50.457Z,7.72
2023-03-26T04:31:24.448Z,7.74
2023-03-26T04:33:56.364Z,7.75
2023-03-26T04:36:27.359Z,7.78
2023-03-26T04:38:55.546Z,7.79
2023-03-26T04:41:22.612Z,7.79
2023-03-26T04:43:50.666Z,7.82
2023-03-26T04:46:26.755Z,7.81
2023-03-26T04:48:54.690Z,7.81
2023-03-26T04:51:25.813Z,7.82
2023-03-26T04:53:59.251Z,7.82
2023-03-26T04:56:51.462Z,7.85
2023-03-26T04:59:30.041Z,7.83
2023-03-26T05:01:59.350Z,7.85
2023-03-26T05:04:29.414Z,7.88
2023-03-26T05:06:58.482Z,7.88
2023-03-26T05:09:27.303Z,7.89
2023-03-26T05:11:55.659Z,7.90
2023-03-26T05:14:22.979Z,7.88
2023-03-26T05:16:53.192Z,7.90
2023-03-26T05:19:22.392Z,7.89
2023-03-26T05:21:49.715Z,7.88
2023-03-26T05:24:17.066Z,7.90
2023-03-26T05:26:45.084Z,7.91
2023-03-26T05:29:17.969Z,7.90
2023-03-26T05:31:44.764Z,7.90
2023-03-26T05:34:12.079Z,7.90
2023-03-26T05:36:39.169Z,7.93
2023-03-26T05:39:06.158Z,7.92
2023-03-26T05:41:34.100Z,7.92
2023-03-26T05:44:01.261Z,7.91
2023-03-26T05:46:33.090Z,7.93
2023-03-26T05:49:02.773Z,7.95
2023-03-26T05:51:29.696Z,7.98
2023-03-26T05:53:56.405Z,7.97
2023-03-26T05:56:23.574Z,7.98
2023-03-26T05:58:52.077Z,7.98
2023-03-26T06:01:19.780Z,7.98
2023-03-26T06:03:48.574Z,8.06
2023-03-26T06:06:18.718Z,8.03
2023-03-26T06:09:01.013Z,8.05
2023-03-26T06:11:31.482Z,8.05
2023-03-26T06:13:59.170Z,8.06
2023-03-26T06:16:28.372Z,8.04
2023-03-26T06:18:57.621Z,8.06
2023-03-26T06:21:26.326Z,8.05
2023-03-26T06:23:53.967Z,8.08
2023-03-26T06:26:21.821Z,8.09
2023-03-26T06:28:49.124Z,8.10
2023-03-26T06:31:17.322Z,8.12
2023-03-26T06:33:44.064Z,8.14
2023-03-26T06:36:12.862Z,8.17
2023-03-26T06:38:41.990Z,8.14
2023-03-26T06:41:08.774Z,8.14
2023-03-26T06:43:36.343Z,8.14
2023-03-26T06:46:04.354Z,8.18
2023-03-26T06:48:32.001Z,8.18
2023-03-26T06:50:59.071Z,8.21
2023-03-26T06:53:26.685Z,8.24
2023-03-26T06:55:54.517Z,8.27
2023-03-26T06:58:22.374Z,8.31
2023-03-26T07:00:54.283Z,8.32
2023-03-26T07:03:25.469Z,8.35
2023-03-26T07:05:52.616Z,8.36
2023-03-26T07:08:20.179Z,8.36
2023-03-26T07:10:47.409Z,8.38
2023-03-26T07:13:14.176Z,8.41
2023-03-26T07:15:41.424Z,8.40
2023-03-26T07:18:08.982Z,8.37
2023-03-26T07:20:36.549Z,8.39
2023-03-26T07:23:04.344Z,8.39
2023-03-26T07:25:31.949Z,8.42
2023-03-26T07:28:18.150Z,8.45
2023-03-26T07:31:16.400Z,8.45
2023-03-26T07:34:04.580Z,8.47
2023-03-26T07:36:47.216Z,8.44
2023-03-26T07:39:45.558Z,8.46
2023-03-26T07:42:23.424Z,8.44
2023-03-26T07:45:02.473Z,8.45
2023-03-26T07:47:36.826Z,8.42
2023-03-26T07:50:04.985Z,8.41
2023-03-26T07:52:32.708Z,8.42
2023-03-26T07:54:59.788Z,8.45
2023-03-26T07:57:52.516Z,8.47
2023-03-26T08:00:29.809Z,8.53
2023-03-26T08:03:28.949Z,8.59
2023-03-26T08:05:59.429Z,8.62
2023-03-26T08:08:45.873Z,8.65
2023-03-26T08:11:25.332Z,8.69
2023-03-26T08:14:02.877Z,8.73
2023-03-26T08:16:48.771Z,8.81
2023-03-26T08:26:27.543Z,8.95
2023-03-26T08:29:04.078Z,8.95
2023-03-26T08:31:34.243Z,8.97
2023-03-26T08:34:02.184Z,9.01
2023-03-26T08:36:29.551Z,9.04
2023-03-26T08:38:59.799Z,9.02
2023-03-26T08:41:49.215Z,9.06
2023-03-26T08:44:41.477Z,9.03
2023-03-26T08:47:21.228Z,9.08
2023-03-26T08:50:20.621Z,9.08
2023-03-26T08:53:16.036Z,9.09
2023-03-26T08:55:55.281Z,9.00
2023-03-26T08:58:44.430Z,9.00
2023-03-26T09:01:32.093Z,8.96
2023-03-26T09:04:08.381Z,8.96
2023-03-26T09:06:53.697Z,8.94
2023-03-26T09:09:45.999Z,8.90
2023-03-26T09:12:40.883Z,8.91
2023-03-26T09:15:44.898Z,8.93
2023-03-26T09:18:33.294Z,8.93
2023-03-26T09:21:38.305Z,8.94
2023-03-26T09:24:30.424Z,8.95
2023-03-26T09:27:15.819Z,8.97
2023-03-26T09:30:07.460Z,9.01
2023-03-26T09:33:29.303Z,8.97
2023-03-26T09:36:30.269Z,8.98
2023-03-26T09:39:30.967Z,8.96
2023-03-26T09:42:09.356Z,8.97
2023-03-26T09:45:19.123Z,8.98
2023-03-26T09:48:18.888Z,9.11
2023-03-26T09:51:13.574Z,9.21
2023-03-26T09:54:00.051Z,9.26
2023-03-26T09:56:41.490Z,9.30
2023-03-26T09:59:14.842Z,9.29
2023-03-26T10:01:59.997Z,9.26
2023-03-26T10:04:40.598Z,9.19
2023-03-26T10:07:38.878Z,9.14
2023-03-26T10:10:25.434Z,9.16
2023-03-26T10:13:14.082Z,9.18
2023-03-26T10:16:08.115Z,9.17
2023-03-26T10:18:59.511Z,9.16
2023-03-26T10:21:41.705Z,9.13
2023-03-26T10:24:33.422Z,9.18
2023-03-26T10:27:11.178Z,9.17
2023-03-26T10:29:37.907Z,9.14
2023-03-26T10:32:30.461Z,9.10
2023-03-26T10:35:35.176Z,9.04
2023-03-26T10:38:18.238Z,9.00
2023-03-26T10:41:16.218Z,8.93
2023-03-26T10:44:31.763Z,8.92
2023-03-26T10:47:34.939Z,8.87
2023-03-26T10:50:27.595Z,8.84
2023-03-26T10:53:27.405Z,8.84
2023-03-26T10:56:02.908Z,8.81
2023-03-26T10:58:48.453Z,8.78
2023-03-26T11:01:36.328Z,8.73
2023-03-26T11:04:41.986Z,8.75
2023-03-26T11:07:26.414Z,8.74
2023-03-26T11:10:11.285Z,8.74
2023-03-26T11:13:07.962Z,8.78
2023-03-26T11:15:50.103Z,8.82
2023-03-26T11:18:28.277Z,8.80
2023-03-26T11:21:30.214Z,8.78
2023-03-26T11:24:14.157Z,8.80
2023-03-26T11:26:55.860Z,8.86
2023-03-26T11:29:44.644Z,8.87
2023-03-26T11:32:26.077Z,8.89
2023-03-26T11:35:03.920Z,8.90
2023-03-26T11:37:52.325Z,8.89
2023-03-26T11:40:32.706Z,8.96
2023-03-26T11:43:04.919Z,9.09
2023-03-26T11:45:37.349Z,9.14
2023-03-26T11:48:17.668Z,9.21
2023-03-26T11:50:48.166Z,9.32
2023-03-26T11:53:22.480Z,9.36
2023-03-26T11:56:22.385Z,9.46
2023-03-26T11:59:01.205Z,9.56
2023-03-26T12:01:41.098Z,9.60
2023-03-26T12:04:15.546Z,9.74
2023-03-26T12:06:51.712Z,9.83
2023-03-26T12:09:19.704Z,9.88
2023-03-26T12:11:48.078Z,9.99
2023-03-26T12:14:26.757Z,10.01
2023-03-26T12:17:31.582Z,9.96
2023-03-26T12:20:01.361Z,10.02
2023-03-26T12:22:36.130Z,10.26
2023-03-26T12:25:18.393Z,10.15
2023-03-26T12:27:49.766Z,10.16
2023-03-26T12:30:26.302Z,10.28
2023-03-26T12:33:00.879Z,10.35
2023-03-26T12:35:31.460Z,10.43
2023-03-26T12:38:33.424Z,10.47
2023-03-26T12:44:46.457Z,10.67
2023-03-26T12:44:54.771Z,10.75
2023-03-26T12:47:59.834Z,10.93
2023-03-26T12:50:14.780Z,11.23
2023-03-26T12:53:00.333Z,11.34
2023-03-26T12:55:53.131Z,11.48
2023-03-26T12:58:47.965Z,11.70
2023-03-26T13:01:33.405Z,11.75
2023-03-26T13:04:18.874Z,11.62
2023-03-26T13:07:00.978Z,11.57
2023-03-26T13:09:58.126Z,11.48
2023-03-26T13:12:50.521Z,11.48
2023-03-26T13:15:34.646Z,11.45
2023-03-26T13:18:08.551Z,11.57
2023-03-26T13:20:53.754Z,11.60
2023-03-26T13:23:46.809Z,11.64
2023-03-26T13:26:41.019Z,11.63
2023-03-26T13:29:26.317Z,11.53
2023-03-26T13:32:18.326Z,11.31
2023-03-26T13:35:07.617Z,11.37
2023-03-26T13:37:51.254Z,11.27
2023-03-26T13:40:36.476Z,11.12
2023-03-26T13:43:22.999Z,11.04
2023-03-26T13:46:01.742Z,10.75
2023-03-26T13:48:59.988Z,10.66
2023-03-26T13:51:37.488Z,10.64
2023-03-26T13:54:18.711Z,10.66
2023-03-26T13:57:33.504Z,10.65
2023-03-26T14:00:23.499Z,10.78
2023-03-26T14:02:57.979Z,10.85
2023-03-26T14:05:38.599Z,10.66
2023-03-26T14:08:41.786Z,10.63
2023-03-26T14:11:21.779Z,10.60
2023-03-26T14:14:04.169Z,10.59
2023-03-26T14:16:41.640Z,10.54
2023-03-26T14:19:30.881Z,10.57
2023-03-26T14:22:24.185Z,10.41
2023-03-26T14:24:53.785Z,10.26
2023-03-26T14:27:26.434Z,10.16
2023-03-26T14:30:27.540Z,10.01
2023-03-26T14:33:28.075Z,9.93
2023-03-26T14:36:21.573Z,9.82
2023-03-26T14:39:13.993Z,9.74
2023-03-26T14:41:52.030Z,9.61
2023-03-26T14:44:56.481Z,9.57
2023-03-26T14:47:26.741Z,9.50
2023-03-26T14:50:07.000Z,9.45
2023-03-26T14:52:37.233Z,9.44
2023-03-26T14:55:18.636Z,9.54
2023-03-26T14:58:18.132Z,9.57
2023-03-26T15:00:47.757Z,9.58
2023-03-26T15:03:15.886Z,9.62
2023-03-26T15:06:16.957Z,9.63
2023-03-26T15:09:09.130Z,9.64
2023-03-26T15:12:23.840Z,9.60
2023-03-26T15:14:51.676Z,9.61
2023-03-26T15:17:56.079Z,9.57
2023-03-26T15:20:52.402Z,9.46
2023-03-26T15:23:22.253Z,9.37
2023-03-26T15:26:09.853Z,9.32
2023-03-26T15:28:58.572Z,9.26
2023-03-26T15:31:37.060Z,9.16
2023-03-26T15:34:30.402Z,9.16
2023-03-26T15:37:35.170Z,9.18
2023-03-26T15:46:33.586Z,9.15
2023-03-26T15:49:45.038Z,9.12
2023-03-26T15:52:31.593Z,9.07
2023-03-26T15:55:20.697Z,9.10
2023-03-26T15:58:06.424Z,9.06
2023-03-26T16:00:44.334Z,9.00
2023-03-26T16:03:11.207Z,8.91
2023-03-26T16:05:38.349Z,8.88
2023-03-26T16:08:38.215Z,8.85
2023-03-26T16:11:12.647Z,8.80
2023-03-26T16:13:40.898Z,8.81
2023-03-26T16:16:24.104Z,8.75
2023-03-26T16:19:18.121Z,8.74
2023-03-26T16:21:56.139Z,8.69
2023-03-26T16:24:26.577Z,8.70
2023-03-26T16:27:12.825Z,8.67
2023-03-26T16:30:19.495Z,8.64
2023-03-26T16:32:56.296Z,8.62
2023-03-26T16:35:39.753Z,8.60
2023-03-26T16:38:18.609Z,8.56
2023-03-26T16:41:00.989Z,8.52
2023-03-26T16:43:46.170Z,8.48
2023-03-26T16:46:27.988Z,8.42
2023-03-26T16:49:02.552Z,8.47
2023-03-26T16:51:50.803Z,8.40
2023-03-26T16:54:52.441Z,8.40
2023-03-26T16:57:27.026Z,8.38
2023-03-26T17:00:18.152Z,8.36
2023-03-26T17:03:15.656Z,8.31
2023-03-26T17:05:56.470Z,8.31
2023-03-26T17:08:54.578Z,8.30
2023-03-26T17:11:38.381Z,8.27
2023-03-26T17:14:15.875Z,8.22
2023-03-26T17:16:48.433Z,8.27
2023-03-26T17:19:39.593Z,8.22
2023-03-26T17:22:24.873Z,8.24
2023-03-26T17:24:58.939Z,8.26
2023-03-26T17:27:33.955Z,8.21
2023-03-26T17:30:08.721Z,8.14
2023-03-26T17:32:56.725Z,8.12
2023-03-26T17:35:51.248Z,8.11
2023-03-26T17:38:20.033Z,8.09
2023-03-26T17:40:49.132Z,8.07
2023-03-26T17:43:51.678Z,7.95
2023-03-26T17:46:37.608Z,7.92
2023-03-26T17:49:27.164Z,7.95
2023-03-26T17:52:19.860Z,7.88
2023-03-26T17:54:50.171Z,7.84
2023-03-26T17:57:40.318Z,7.82
2023-03-26T18:00:18.414Z,7.74
2023-03-26T18:02:57.376Z,7.73
2023-03-26T18:05:31.467Z,7.68
2023-03-26T18:08:32.480Z,7.71
2023-03-26T18:11:13.605Z,7.66
2023-03-26T18:14:18.438Z,7.64
2023-03-26T18:16:51.515Z,7.62
2023-03-26T18:19:22.615Z,7.62
2023-03-26T18:21:52.043Z,7.59
2023-03-26T18:24:41.110Z,7.60
2023-03-26T18:27:19.015Z,7.61
2023-03-26T18:30:01.383Z,7.59
2023-03-26T18:32:33.660Z,7.54
2023-03-26T18:35:14.312Z,7.55
2023-03-26T18:37:44.690Z,7.52
2023-03-26T18:40:18.968Z,7.59
2023-03-26T18:42:56.607Z,7.45
2023-03-26T18:45:37.475Z,7.39
2023-03-26T18:48:11.808Z,7.37
2023-03-26T18:50:41.551Z,7.31
2023-03-26T18:53:28.534Z,7.32
2023-03-26T18:55:57.828Z,7.27
2023-03-26T18:58:26.158Z,7.24
2023-03-26T19:00:58.406Z,7.28
2023-03-26T19:03:26.820Z,7.23
2023-03-26T19:05:56.143Z,7.25
2023-03-26T19:08:25.448Z,7.18
2023-03-26T19:10:54.459Z,7.29
2023-03-26T19:13:22.322Z,7.15
2023-03-26T19:15:54.666Z,7.13
2023-03-26T19:18:28.345Z,7.11
2023-03-26T19:20:59.429Z,7.07
2023-03-26T19:23:32.677Z,7.08
2023-03-26T19:26:02.544Z,7.05
2023-03-26T19:28:37.330Z,7.03
2023-03-26T19:31:12.476Z,7.02
2023-03-26T19:33:42.113Z,7.00
2023-03-26T19:36:19.463Z,6.93
2023-03-26T19:38:52.066Z,6.89
2023-03-26T19:41:44.639Z,6.95
2023-03-26T19:44:22.586Z,6.91
2023-03-26T19:46:53.712Z,6.86
2023-03-26T19:49:28.002Z,6.81
2023-03-26T19:52:19.365Z,6.80
2023-03-26T19:54:59.713Z,6.83
2023-03-26T19:57:32.663Z,6.78
2023-03-26T20:00:00.716Z,6.78
2023-03-26T20:02:29.508Z,6.69
2023-03-26T20:04:57.118Z,6.75
2023-03-26T20:07:34.970Z,6.71
2023-03-26T20:10:05.594Z,6.66
2023-03-26T20:12:33.088Z,6.60
2023-03-26T20:15:01.592Z,6.68
2023-03-26T20:17:31.121Z,6.53
2023-03-26T20:19:59.617Z,6.58
2023-03-26T20:22:26.873Z,6.54
2023-03-26T20:24:54.743Z,6.43
2023-03-26T20:27:22.476Z,6.48
2023-03-26T20:29:49.665Z,6.48
2023-03-26T20:32:23.142Z,6.38
2023-03-26T20:34:52.726Z,6.36
2023-03-26T20:37:20.200Z,6.30
2023-03-26T20:39:47.295Z,6.23
2023-03-26T20:42:16.100Z,6.21
2023-03-26T20:44:43.536Z,6.19
2023-03-26T20:47:11.663Z,6.19
2023-03-26T20:49:41.779Z,6.18
2023-03-26T20:52:13.540Z,6.12
2023-03-26T20:54:41.980Z,6.21
2023-03-26T20:57:11.855Z,6.08
2023-03-26T20:59:38.771Z,6.03
2023-03-26T21:02:06.433Z,6.00
2023-03-26T21:04:38.627Z,6.03
2023-03-26T21:07:21.452Z,5.98
2023-03-26T21:09:49.628Z,5.90
2023-03-26T21:12:31.263Z,5.83
2023-03-26T21:14:58.973Z,5.85
2023-03-26T21:17:27.190Z,5.80
2023-03-26T21:20:00.444Z,5.78
2023-03-26T21:22:38.652Z,5.81
2023-03-26T21:25:20.630Z,5.75
2023-03-26T21:28:04.036Z,5.71
2023-03-26T21:30:31.385Z,5.67
2023-03-26T21:32:59.736Z,5.61
2023-03-26T21:35:27.344Z,5.54
2023-03-26T21:37:57.660Z,5.43
2023-03-26T21:40:25.002Z,5.37
2023-03-26T21:42:54.268Z,5.28
2023-03-26T21:45:22.465Z,5.23
2023-03-26T21:47:50.246Z,5.18
2023-03-26T21:50:21.750Z,5.23
2023-03-26T21:52:51.731Z,5.17
2023-03-26T21:55:21.968Z,5.07
2023-03-26T21:57:55.126Z,5.03
2023-03-26T22:00:33.538Z,4.91
2023-03-26T22:03:13.166Z,4.91
2023-03-26T22:05:40.621Z,4.86
2023-03-26T22:08:40.636Z,4.82
2023-03-26T22:11:09.905Z,4.85
2023-03-26T22:13:38.611Z,4.81
2023-03-26T22:16:08.825Z,4.75
2023-03-26T22:18:37.681Z,4.71
2023-03-26T22:21:06.052Z,4.68
2023-03-26T22:23:36.171Z,4.62
2023-03-26T22:26:05.154Z,4.57
2023-03-26T22:28:32.109Z,4.52
2023-03-26T22:30:59.396Z,4.53
2023-03-26T22:33:26.655Z,4.49
2023-03-26T22:35:55.866Z,4.46
2023-03-26T22:38:23.796Z,4.47
2023-03-26T22:40:58.591Z,4.46
2023-03-26T22:43:26.186Z,4.38
2023-03-26T22:45:55.030Z,4.41
2023-03-26T22:48:23.772Z,4.38
2023-03-26T22:51:05.659Z,4.41
2023-03-26T22:53:33.120Z,4.35
2023-03-26T22:56:00.922Z,4.32
2023-03-26T22:58:30.313Z,4.47
2023-03-26T23:01:08.222Z,4.42
2023-03-26T23:03:37.128Z,4.38
2023-03-26T23:06:07.951Z,4.37
2023-03-26T23:08:37.917Z,4.33
2023-03-26T23:11:09.841Z,4.30
2023-03-26T23:13:36.845Z,4.42
2023-03-26T23:16:05.166Z,4.37
2023-03-26T23:18:33.074Z,4.36
2023-03-26T23:21:00.132Z,4.43
2023-03-26T23:23:30.871Z,4.39
2023-03-26T23:26:01.365Z,4.46
2023-03-26T23:28:32.004Z,4.50
2023-03-26T23:31:02.780Z,4.47
2023-03-26T23:33:34.344Z,4.55
2023-03-26T23:36:04.224Z,4.50
2023-03-26T23:38:43.858Z,4.45
2023-03-26T23:41:15.975Z,4.45
2023-03-26T23:43:53.604Z,4.49
2023-03-26T23:46:34.563Z,4.43
2023-03-26T23:49:03.551Z,4.41
2023-03-26T23:51:31.898Z,4.42
2023-03-26T23:53:59.909Z,4.39
2023-03-26T23:56:30.334Z,4.37
2023-03-26T23:58:58.344Z,4.49
